VTSP/HKT METAR and TAF weather

Enter ICAO airport designator
Station Type Date Time Source
VTSP METAR 2021/09/25 13:00 UTC NOAA

VTSP 251300Z 00000KT 9999 -RA SCT015 BKN100 25/24 Q1008 NOSIG


Station Type Date Time Source
VTSP Decoded METAR 2021/09/25 13:00 UTC NOAA

Phuket Airport, Thailand (VTSP) 08-07N 098-19E 10M
Sep 25, 2021 - 09:00 AM EDT / 2021.09.25 1300 UTC
Wind: Calm:0
Visibility: greater than 7 mile(s):0
Sky conditions: mostly cloudy
Weather: light rain
Temperature: 77 F (25 C)
Dew Point: 75 F (24 C)
Relative Humidity: 94%
Pressure (altimeter): 29.77 in. Hg (1008 hPa)
ob: VTSP 251300Z 00000KT 9999 -RA SCT015 BKN100 25/24 Q1008 NOSIG
cycle: 13

Station Type Date Time Source
VTSP TAF 2021/09/25 12:36 UTC NOAA

TAF VTSP 251100Z 2512/2618 00000KT 9999 FEW020 SCT100
TEMPO 2512/2516 30015G30KT 3000 TSRA FEW016CB SCT020 BKN100
TEMPO 2520/2524 30015G30KT 3000 TSRA FEW016CB SCT020 BKN100
BECMG 2600/2602 28006KT
TEMPO 2602/2608 30015G30KT 3000 TSRA FEW016CB SCT020 BKN100

Example: see airport list